createdAt,value
2018-07-05T00:00:06.293Z,2.17
2018-07-05T00:02:46.538Z,2.02
2018-07-05T00:05:26.354Z,2.47
2018-07-05T00:08:06.371Z,1.82
2018-07-05T00:10:46.255Z,2.98
2018-07-05T00:13:26.268Z,2.60
2018-07-05T00:16:06.300Z,2.75
2018-07-05T00:18:46.223Z,2.20
2018-07-05T00:21:26.159Z,2.83
2018-07-05T00:24:06.263Z,3.65
2018-07-05T00:26:46.315Z,3.45
2018-07-05T00:29:26.433Z,1.30
2018-07-05T00:32:06.319Z,2.00
2018-07-05T00:34:46.214Z,1.42
2018-07-05T00:37:26.247Z,4.05
2018-07-05T00:40:06.358Z,4.87
2018-07-05T00:42:46.126Z,2.55
2018-07-05T00:45:25.801Z,2.55
2018-07-05T00:48:05.815Z,1.77
2018-07-05T00:50:45.772Z,5.92
2018-07-05T00:53:25.707Z,1.92
2018-07-05T00:56:05.767Z,3.85
2018-07-05T00:58:45.920Z,6.20
2018-07-05T01:01:25.973Z,5.28
2018-07-05T01:04:05.896Z,2.95
2018-07-05T01:06:45.727Z,2.67
2018-07-05T01:09:25.622Z,3.85
2018-07-05T01:12:05.578Z,1.90
2018-07-05T01:14:45.582Z,2.12
2018-07-05T01:17:25.556Z,3.58
2018-07-05T01:20:05.409Z,1.12
2018-07-05T01:22:45.388Z,2.10
2018-07-05T01:25:25.303Z,2.22
2018-07-05T01:28:05.366Z,2.27
2018-07-05T01:30:45.196Z,2.42
2018-07-05T01:33:25.500Z,2.98
2018-07-05T01:36:06.431Z,4.03
2018-07-05T01:38:46.568Z,3.10
2018-07-05T01:41:26.369Z,3.67
2018-07-05T01:44:06.314Z,1.35
2018-07-05T01:46:46.327Z,4.12
2018-07-05T01:49:26.240Z,3.20
2018-07-05T01:52:10.267Z,3.50
2018-07-05T01:54:50.395Z,3.35
2018-07-05T01:57:30.399Z,2.95
2018-07-05T02:00:10.428Z,4.10
2018-07-05T02:02:50.090Z,3.70
2018-07-05T02:05:30.329Z,2.10
2018-07-05T02:08:10.114Z,1.52
2018-07-05T02:10:50.031Z,0.95
2018-07-05T02:13:30.146Z,1.02
2018-07-05T02:16:10.045Z,2.47
2018-07-05T02:18:49.936Z,1.70
2018-07-05T02:21:29.935Z,1.92
2018-07-05T02:24:09.938Z,2.87
2018-07-05T02:26:49.999Z,0.90
2018-07-05T02:29:29.804Z,1.85
2018-07-05T02:32:09.754Z,1.00
2018-07-05T02:34:49.595Z,1.40
2018-07-05T02:37:34.779Z,2.25
2018-07-05T02:40:14.818Z,2.25
2018-07-05T02:42:54.571Z,2.98
2018-07-05T02:45:34.510Z,1.65
2018-07-05T02:48:14.292Z,1.62
2018-07-05T02:50:54.359Z,1.62
2018-07-05T02:53:34.452Z,1.67
2018-07-05T02:56:14.628Z,6.97
2018-07-05T02:58:54.646Z,2.25
2018-07-05T03:01:34.624Z,4.45
2018-07-05T03:04:14.723Z,1.45
2018-07-05T03:06:54.656Z,1.35
2018-07-05T03:09:34.697Z,1.25
2018-07-05T03:12:14.648Z,2.60
2018-07-05T03:14:54.618Z,3.25
2018-07-05T03:17:34.653Z,1.75
2018-07-05T03:20:14.777Z,2.02
2018-07-05T03:22:54.750Z,1.57
2018-07-05T03:25:34.692Z,2.17
2018-07-05T03:28:14.604Z,2.47
2018-07-05T03:30:54.486Z,3.45
2018-07-05T03:33:34.498Z,3.72
2018-07-05T03:36:15.129Z,5.50
2018-07-05T03:38:54.973Z,1.52
2018-07-05T03:41:35.078Z,3.67
2018-07-05T03:44:15.284Z,2.08
2018-07-05T03:46:55.228Z,1.12
2018-07-05T03:49:35.141Z,2.55
2018-07-05T03:52:15.462Z,0.80
2018-07-05T03:54:55.337Z,2.10
2018-07-05T03:57:35.557Z,2.00
2018-07-05T04:00:15.498Z,1.67
2018-07-05T04:02:55.250Z,1.35
2018-07-05T04:05:35.256Z,2.70
2018-07-05T04:08:15.158Z,1.27
2018-07-05T04:10:55.212Z,2.77
2018-07-05T04:13:35.109Z,3.12
2018-07-05T04:16:15.262Z,2.47
2018-07-05T04:18:55.111Z,2.47
2018-07-05T04:21:35.202Z,2.90
2018-07-05T04:24:14.885Z,2.00
2018-07-05T04:26:54.756Z,3.00
2018-07-05T04:29:34.971Z,1.65
2018-07-05T04:32:14.723Z,1.65
2018-07-05T04:34:54.738Z,1.92
2018-07-05T04:37:34.534Z,2.95
2018-07-05T04:40:14.601Z,1.55
2018-07-05T04:42:54.316Z,3.12
2018-07-05T04:45:34.468Z,1.47
2018-07-05T04:48:14.409Z,3.95
2018-07-05T04:50:54.561Z,2.47
2018-07-05T04:53:34.735Z,1.65
2018-07-05T04:56:14.657Z,2.15
2018-07-05T04:58:54.636Z,2.00
2018-07-05T05:01:34.495Z,1.37
2018-07-05T05:04:14.485Z,3.80
2018-07-05T05:06:54.492Z,2.33
2018-07-05T05:09:34.580Z,1.32
2018-07-05T05:12:14.353Z,3.22
2018-07-05T05:14:54.318Z,1.45
2018-07-05T05:17:34.087Z,2.92
2018-07-05T05:20:14.333Z,3.05
2018-07-05T05:22:54.156Z,1.35
2018-07-05T05:25:34.038Z,1.65
2018-07-05T05:28:14.074Z,2.22
2018-07-05T05:30:53.846Z,1.95
2018-07-05T05:33:33.986Z,2.00
2018-07-05T05:36:13.936Z,1.15
2018-07-05T05:38:53.782Z,3.17
2018-07-05T05:41:33.598Z,2.25
2018-07-05T05:44:13.806Z,2.47
2018-07-05T05:46:53.629Z,1.82
2018-07-05T05:49:33.573Z,1.82
2018-07-05T05:52:13.425Z,1.72
2018-07-05T05:54:53.316Z,2.17
2018-07-05T05:57:33.240Z,3.80
2018-07-05T06:00:13.281Z,3.80
2018-07-05T06:02:53.041Z,6.72
2018-07-05T06:05:33.074Z,3.85
2018-07-05T06:08:12.937Z,4.05
2018-07-05T06:10:52.911Z,2.90
2018-07-05T06:13:32.741Z,3.98
2018-07-05T06:16:12.795Z,2.27
2018-07-05T06:18:52.660Z,4.17
2018-07-05T06:21:32.611Z,4.20
2018-07-05T06:24:12.661Z,3.15
2018-07-05T06:26:52.762Z,5.17
2018-07-05T06:29:32.856Z,4.65
2018-07-05T06:32:12.743Z,2.08
2018-07-05T06:34:52.569Z,4.22
2018-07-05T06:37:32.462Z,3.52
2018-07-05T06:40:12.482Z,6.37
2018-07-05T06:42:52.397Z,4.08
2018-07-05T06:45:32.261Z,3.37
2018-07-05T06:48:12.230Z,4.22
2018-07-05T06:50:52.335Z,17.00
2018-07-05T06:53:32.154Z,12.95
2018-07-05T06:56:12.111Z,9.65
2018-07-05T06:58:52.192Z,7.62
2018-07-05T07:01:32.069Z,9.28
2018-07-05T07:04:12.461Z,9.85
2018-07-05T07:06:52.282Z,7.67
2018-07-05T07:09:32.346Z,8.28
2018-07-05T07:12:12.519Z,7.75
2018-07-05T07:14:53.268Z,12.47
2018-07-05T07:17:33.426Z,6.05
2018-07-05T07:20:13.355Z,10.48
2018-07-05T07:22:53.330Z,9.20
2018-07-05T07:25:33.279Z,8.63
2018-07-05T07:28:13.170Z,12.68
2018-07-05T07:30:53.266Z,4.35
2018-07-05T07:33:33.064Z,4.37
2018-07-05T07:36:13.186Z,5.33
2018-07-05T07:38:53.119Z,5.85
2018-07-05T07:41:33.380Z,3.50
2018-07-05T07:44:00.799Z,6.65
2018-07-05T07:46:28.469Z,5.67
2018-07-05T07:48:56.063Z,7.50
2018-07-05T07:51:24.355Z,5.10
2018-07-05T07:53:51.775Z,3.55
2018-07-05T07:56:19.471Z,4.87
2018-07-05T07:58:46.887Z,5.58
2018-07-05T08:01:14.420Z,4.03
2018-07-05T08:03:42.211Z,4.67
2018-07-05T08:06:10.008Z,3.80
2018-07-05T08:08:37.599Z,2.83
2018-07-05T08:11:05.084Z,3.08
2018-07-05T08:13:32.696Z,5.30
2018-07-05T08:16:00.209Z,2.90
2018-07-05T08:18:27.644Z,2.80
2018-07-05T08:20:55.167Z,4.45
2018-07-05T08:23:22.622Z,4.40
2018-07-05T08:25:50.098Z,2.45
2018-07-05T08:28:17.710Z,3.98
2018-07-05T08:30:45.268Z,2.80
2018-07-05T08:33:12.762Z,2.20
2018-07-05T08:35:40.435Z,5.40
2018-07-05T08:38:07.937Z,3.00
2018-07-05T08:40:35.542Z,3.85
2018-07-05T08:43:03.070Z,3.05
2018-07-05T08:45:30.593Z,2.25
2018-07-05T08:47:58.059Z,2.77
2018-07-05T08:50:25.495Z,2.85
2018-07-05T08:52:53.201Z,2.45
2018-07-05T08:55:20.802Z,3.65
2018-07-05T08:57:48.340Z,6.87
2018-07-05T09:00:15.855Z,4.67
2018-07-05T09:02:43.707Z,1.95
2018-07-05T09:05:11.289Z,2.60
2018-07-05T09:07:38.830Z,3.50
2018-07-05T09:10:06.274Z,2.87
2018-07-05T09:12:33.870Z,2.70
2018-07-05T09:15:01.495Z,3.92
2018-07-05T09:17:29.248Z,1.67
2018-07-05T09:19:56.649Z,2.65
2018-07-05T09:22:24.257Z,1.87
2018-07-05T09:24:51.861Z,3.17
2018-07-05T09:27:19.311Z,2.45
2018-07-05T09:29:46.963Z,2.58
2018-07-05T09:32:14.416Z,2.30
2018-07-05T09:34:42.183Z,2.10
2018-07-05T09:37:09.720Z,3.12
2018-07-05T09:39:37.209Z,3.65
2018-07-05T09:42:04.870Z,3.47
2018-07-05T09:44:32.339Z,4.10
2018-07-05T09:46:59.937Z,2.83
2018-07-05T09:49:27.564Z,2.80
2018-07-05T09:51:55.077Z,1.87
2018-07-05T09:54:22.776Z,1.55
2018-07-05T09:56:50.225Z,4.15
2018-07-05T09:59:17.840Z,2.10
2018-07-05T10:01:45.476Z,3.27
2018-07-05T10:04:12.919Z,1.72
2018-07-05T10:06:40.693Z,1.55
2018-07-05T10:09:08.308Z,2.17
2018-07-05T10:11:36.011Z,3.67
2018-07-05T10:14:03.782Z,2.65
2018-07-05T10:16:31.547Z,1.82
2018-07-05T10:18:59.110Z,2.10
2018-07-05T10:21:26.666Z,2.00
2018-07-05T10:23:54.115Z,3.15
2018-07-05T10:26:21.541Z,3.22
2018-07-05T10:29:01.623Z,2.12
2018-07-05T10:31:41.487Z,2.10
2018-07-05T10:34:09.031Z,2.22
2018-07-05T10:36:36.698Z,1.57
2018-07-05T10:39:05.129Z,2.35
2018-07-05T10:41:45.451Z,2.15
2018-07-05T10:44:25.485Z,2.90
2018-07-05T10:47:05.412Z,3.45
2018-07-05T10:49:45.368Z,2.02
2018-07-05T10:52:25.255Z,2.47
2018-07-05T10:55:05.189Z,2.62
2018-07-05T10:57:45.137Z,2.65
2018-07-05T11:00:24.990Z,1.92
2018-07-05T11:03:05.014Z,1.60
2018-07-05T11:05:44.751Z,1.85
2018-07-05T11:08:24.625Z,2.67
2018-07-05T11:11:04.675Z,2.77
2018-07-05T11:13:44.648Z,1.95
2018-07-05T11:16:24.650Z,2.40
2018-07-05T11:19:04.850Z,4.87
2018-07-05T11:21:44.920Z,1.70
2018-07-05T11:24:24.889Z,2.10
2018-07-05T11:27:04.909Z,3.12
2018-07-05T11:29:45.004Z,2.62
2018-07-05T11:32:24.885Z,2.15
2018-07-05T11:35:04.906Z,4.17
2018-07-05T11:37:44.823Z,1.25
2018-07-05T11:40:24.801Z,2.12
2018-07-05T11:43:04.781Z,3.05
2018-07-05T11:45:44.639Z,2.05
2018-07-05T11:48:24.472Z,1.75
2018-07-05T11:51:04.359Z,2.42
2018-07-05T11:53:44.371Z,2.20
2018-07-05T11:56:24.286Z,3.90
2018-07-05T11:59:04.337Z,1.37
2018-07-05T12:01:44.363Z,1.80
2018-07-05T12:04:24.448Z,1.70
2018-07-05T12:07:04.780Z,1.30
2018-07-05T12:09:44.898Z,1.40
2018-07-05T12:12:24.903Z,3.08
2018-07-05T12:15:04.767Z,3.72
2018-07-05T12:17:44.634Z,2.87
2018-07-05T12:20:24.570Z,2.33
2018-07-05T12:23:04.618Z,2.00
2018-07-05T12:25:44.877Z,1.67
2018-07-05T12:28:24.724Z,2.08
2018-07-05T12:31:04.618Z,1.80
2018-07-05T12:33:44.716Z,2.40
2018-07-05T12:36:24.576Z,2.17
2018-07-05T12:39:05.006Z,2.85
2018-07-05T12:41:44.870Z,3.00
2018-07-05T12:44:24.790Z,3.10
2018-07-05T12:47:04.886Z,2.02
2018-07-05T12:49:44.678Z,2.67
2018-07-05T12:52:24.410Z,2.27
2018-07-05T12:55:04.771Z,3.67
2018-07-05T12:57:44.741Z,1.85
2018-07-05T13:00:24.797Z,1.90
2018-07-05T13:03:04.757Z,1.50
2018-07-05T13:05:44.649Z,1.72
2018-07-05T13:08:24.606Z,1.82
2018-07-05T13:11:04.524Z,2.02
2018-07-05T13:13:44.544Z,1.80
2018-07-05T13:16:24.502Z,2.27
2018-07-05T13:19:04.634Z,1.95
2018-07-05T13:21:44.551Z,2.70
2018-07-05T13:24:24.565Z,2.12
2018-07-05T13:27:04.472Z,2.12
2018-07-05T13:29:44.483Z,2.80
2018-07-05T13:32:24.500Z,1.95
2018-07-05T13:35:04.233Z,1.92
2018-07-05T13:37:44.253Z,1.80
2018-07-05T13:40:24.304Z,3.05
2018-07-05T13:43:04.258Z,1.57
2018-07-05T13:45:44.178Z,1.75
2018-07-05T13:48:23.934Z,1.82
2018-07-05T13:51:04.145Z,2.70
2018-07-05T13:53:44.070Z,1.75
2018-07-05T13:56:23.967Z,3.52
2018-07-05T13:59:04.081Z,1.80
2018-07-05T14:01:43.975Z,1.47
2018-07-05T14:04:23.987Z,1.70
2018-07-05T14:07:03.879Z,1.20
2018-07-05T14:09:44.191Z,1.87
2018-07-05T14:12:24.333Z,2.00
2018-07-05T14:15:04.302Z,1.55
2018-07-05T14:17:44.191Z,3.58
2018-07-05T14:20:24.304Z,1.55
2018-07-05T14:23:04.292Z,1.70
2018-07-05T14:25:44.513Z,3.00
2018-07-05T14:28:24.399Z,1.87
2018-07-05T14:31:04.586Z,1.60
2018-07-05T14:33:44.579Z,2.05
2018-07-05T14:36:24.439Z,1.32
2018-07-05T14:39:05.323Z,1.20
2018-07-05T14:41:45.398Z,1.45
2018-07-05T14:44:25.300Z,2.00
2018-07-05T14:47:05.542Z,1.30
2018-07-05T14:49:45.674Z,1.57
2018-07-05T14:52:25.627Z,2.35
2018-07-05T14:55:05.618Z,1.50
2018-07-05T14:57:45.774Z,1.20
2018-07-05T15:00:25.642Z,1.30
2018-07-05T15:03:05.861Z,2.12
2018-07-05T15:05:46.173Z,1.85
2018-07-05T15:08:26.399Z,1.55
2018-07-05T15:11:06.753Z,2.37
2018-07-05T15:13:46.815Z,0.90
2018-07-05T15:16:26.556Z,0.93
2018-07-05T15:19:06.718Z,1.37
2018-07-05T15:21:46.812Z,1.17
2018-07-05T15:24:26.919Z,1.30
2018-07-05T15:27:06.860Z,0.95
2018-07-05T15:29:46.820Z,1.00
2018-07-05T15:32:26.879Z,2.17
2018-07-05T15:35:06.931Z,1.35
2018-07-05T15:37:47.103Z,1.20
2018-07-05T15:40:27.136Z,2.55
2018-07-05T15:43:06.973Z,2.60
2018-07-05T15:45:46.833Z,1.70
2018-07-05T15:48:26.785Z,1.00
2018-07-05T15:51:06.804Z,1.17
2018-07-05T15:53:46.640Z,1.30
2018-07-05T15:56:26.644Z,0.95
2018-07-05T15:59:06.741Z,1.30
2018-07-05T16:01:46.851Z,1.15
2018-07-05T16:04:27.009Z,1.30
2018-07-05T16:07:07.269Z,1.27
2018-07-05T16:09:47.627Z,0.98
2018-07-05T16:12:27.869Z,1.00
2018-07-05T16:15:08.040Z,1.95
2018-07-05T16:17:47.888Z,1.52
2018-07-05T16:20:27.833Z,0.85
2018-07-05T16:23:07.900Z,1.42
2018-07-05T16:25:47.864Z,1.07
2018-07-05T16:28:27.751Z,0.98
2018-07-05T16:31:07.847Z,1.10
2018-07-05T16:33:47.862Z,0.88
2018-07-05T16:36:27.802Z,1.00
2018-07-05T16:39:07.702Z,1.12
2018-07-05T16:41:47.941Z,0.88
2018-07-05T16:44:27.909Z,1.20
2018-07-05T16:47:08.068Z,1.40
2018-07-05T16:49:48.210Z,1.67
2018-07-05T16:52:28.466Z,1.27
2018-07-05T16:55:08.643Z,1.05
2018-07-05T16:57:48.578Z,1.10
2018-07-05T17:00:28.749Z,2.05
2018-07-05T17:03:08.597Z,1.82
2018-07-05T17:05:48.762Z,1.32
2018-07-05T17:08:28.913Z,1.25
2018-07-05T17:11:08.892Z,1.62
2018-07-05T17:13:49.015Z,1.32
2018-07-05T17:16:29.124Z,1.52
2018-07-05T17:19:08.966Z,1.37
2018-07-05T17:21:49.085Z,1.10
2018-07-05T17:24:29.086Z,1.20
2018-07-05T17:27:09.175Z,1.20
2018-07-05T17:29:49.391Z,1.27
2018-07-05T17:32:29.339Z,1.30
2018-07-05T17:35:09.622Z,1.67
2018-07-05T17:37:49.497Z,2.00
2018-07-05T17:40:29.442Z,1.50
2018-07-05T17:43:09.906Z,1.22
2018-07-05T17:45:50.393Z,1.27
2018-07-05T17:48:30.526Z,1.57
2018-07-05T17:51:10.676Z,1.07
2018-07-05T17:53:50.459Z,1.10
2018-07-05T17:56:30.415Z,5.42
2018-07-05T17:59:10.425Z,6.92
2018-07-05T18:01:50.276Z,1.30
2018-07-05T18:04:30.058Z,1.25
2018-07-05T18:07:10.121Z,8.58
2018-07-05T18:09:50.012Z,1.45
2018-07-05T18:12:31.030Z,1.92
2018-07-05T18:15:10.958Z,1.95
2018-07-05T18:17:50.916Z,4.10
2018-07-05T18:20:31.263Z,3.00
2018-07-05T18:23:12.444Z,3.25
2018-07-05T18:25:52.380Z,4.08
2018-07-05T18:28:32.185Z,3.62
2018-07-05T18:31:12.181Z,4.83
2018-07-05T18:33:52.117Z,2.25
2018-07-05T18:36:32.214Z,1.17
2018-07-05T18:39:12.119Z,4.25
2018-07-05T18:41:52.985Z,4.85
2018-07-05T18:44:32.947Z,3.92
2018-07-05T18:47:13.039Z,2.72
2018-07-05T18:49:53.049Z,3.20
2018-07-05T18:52:32.818Z,7.08
2018-07-05T18:55:12.778Z,6.50
2018-07-05T18:57:52.737Z,5.12
2018-07-05T19:00:32.884Z,7.37
2018-07-05T19:03:13.206Z,7.10
2018-07-05T19:05:53.213Z,11.25
2018-07-05T19:08:33.384Z,10.38
2018-07-05T19:11:13.411Z,3.25
2018-07-05T19:13:53.455Z,5.72
2018-07-05T19:16:33.488Z,4.78
2018-07-05T19:19:13.755Z,5.83
2018-07-05T19:21:54.036Z,2.47
2018-07-05T19:24:34.387Z,2.08
2018-07-05T19:27:14.402Z,4.53
2018-07-05T19:29:54.530Z,1.50
2018-07-05T19:32:34.657Z,1.82
2018-07-05T19:35:14.566Z,1.95
2018-07-05T19:37:54.559Z,3.95
2018-07-05T19:40:34.659Z,4.00
2018-07-05T19:43:14.764Z,5.30
2018-07-05T19:45:54.818Z,1.25
2018-07-05T19:48:35.093Z,1.20
2018-07-05T19:51:15.342Z,2.42
2018-07-05T19:53:55.818Z,2.60
2018-07-05T19:56:35.973Z,2.47
2018-07-05T19:59:16.117Z,4.08
2018-07-05T20:01:56.168Z,2.05
2018-07-05T20:04:36.141Z,2.22
2018-07-05T20:07:16.326Z,3.65
2018-07-05T20:09:56.322Z,1.90
2018-07-05T20:12:36.384Z,2.25
2018-07-05T20:15:16.732Z,1.52
2018-07-05T20:17:56.858Z,1.30
2018-07-05T20:20:37.100Z,3.67
2018-07-05T20:23:17.309Z,1.90
2018-07-05T20:25:57.563Z,2.20
2018-07-05T20:28:37.473Z,1.55
2018-07-05T20:31:17.474Z,1.55
2018-07-05T20:33:58.083Z,0.95
2018-07-05T20:36:38.325Z,1.20
2018-07-05T20:39:18.450Z,1.62
2018-07-05T20:41:58.522Z,2.47
2018-07-05T20:44:38.775Z,1.50
2018-07-05T20:47:18.947Z,1.90
2018-07-05T20:49:59.292Z,1.27
2018-07-05T20:52:39.372Z,1.02
2018-07-05T20:55:19.600Z,1.92
2018-07-05T20:57:59.905Z,1.25
2018-07-05T21:00:40.049Z,1.00
2018-07-05T21:03:20.111Z,0.82
2018-07-05T21:06:00.309Z,1.00
2018-07-05T21:08:40.565Z,3.98
2018-07-05T21:11:20.644Z,0.98
2018-07-05T21:14:00.786Z,1.22
2018-07-05T21:16:40.940Z,1.30
2018-07-05T21:19:21.099Z,1.42
2018-07-05T21:22:01.354Z,0.80
2018-07-05T21:24:41.447Z,2.60
2018-07-05T21:27:21.773Z,1.10
2018-07-05T21:30:01.894Z,1.07
2018-07-05T21:32:41.805Z,1.10
2018-07-05T21:35:21.793Z,1.50
2018-07-05T21:38:01.721Z,1.00
2018-07-05T21:40:41.792Z,1.55
2018-07-05T21:43:21.781Z,2.60
2018-07-05T21:46:01.833Z,2.62
2018-07-05T21:48:41.888Z,1.40
2018-07-05T21:51:22.038Z,1.55
2018-07-05T21:54:02.186Z,1.55
2018-07-05T21:56:42.356Z,2.47
2018-07-05T21:59:22.514Z,1.07
2018-07-05T22:02:03.386Z,1.47
2018-07-05T22:04:43.650Z,1.22
2018-07-05T22:07:23.588Z,1.90
2018-07-05T22:10:03.660Z,1.42
2018-07-05T22:12:43.487Z,2.05
2018-07-05T22:15:23.430Z,1.00
2018-07-05T22:18:08.760Z,1.10
2018-07-05T22:20:54.101Z,1.15
2018-07-05T22:23:39.116Z,0.78
2018-07-05T22:26:24.313Z,3.52
2018-07-05T22:29:09.828Z,7.78
2018-07-05T22:31:56.643Z,5.87
2018-07-05T22:34:36.592Z,4.90
2018-07-05T22:37:16.857Z,6.03
2018-07-05T22:39:57.298Z,4.55
2018-07-05T22:42:37.538Z,1.60
2018-07-05T22:45:17.489Z,3.33
2018-07-05T22:47:57.360Z,2.90
2018-07-05T22:50:37.110Z,5.97
2018-07-05T22:53:16.961Z,1.85
2018-07-05T22:55:57.014Z,3.20
2018-07-05T22:58:37.234Z,2.72
2018-07-05T23:01:17.381Z,2.77
2018-07-05T23:03:57.881Z,1.32
2018-07-05T23:06:37.844Z,3.02
2018-07-05T23:09:18.105Z,2.47
2018-07-05T23:11:58.193Z,3.12
2018-07-05T23:14:38.008Z,5.55
2018-07-05T23:17:17.951Z,1.10
2018-07-05T23:19:58.005Z,3.02
2018-07-05T23:22:37.920Z,2.10
2018-07-05T23:25:18.106Z,1.50
2018-07-05T23:27:58.075Z,2.08
2018-07-05T23:30:38.121Z,2.05
2018-07-05T23:33:18.073Z,3.22
2018-07-05T23:35:58.096Z,2.08
2018-07-05T23:38:38.028Z,2.35
2018-07-05T23:41:18.018Z,3.10
2018-07-05T23:43:57.980Z,1.35
2018-07-05T23:46:38.129Z,1.75
2018-07-05T23:49:18.189Z,3.72
2018-07-05T23:51:58.219Z,2.47
2018-07-05T23:54:38.205Z,3.42
2018-07-05T23:57:18.128Z,1.67
2018-07-05T23:59:57.994Z,1.75
